Time;durP1;ratioP1;P1;durP2;ratioP2;P2;SDS_P1;SDS_P2;PMS_P1;PMS_P2;Temp;Humidity;BMP_temperature;BMP_pressure;BME280_temperature;BME280_humidity;BME280_pressure;Samples;Min_cycle;Max_cycle;Signal;HPM_P1;HPM_P2
2022/06/07 00:02:04;;;;;;;9.88;3.33;;;11.20;99.90;;;;;;5035221;28;20381;-71
2022/06/07 00:04:29;;;;;;;11.23;3.88;;;11.30;99.90;;;;;;5034847;28;20018;-71
2022/06/07 00:06:55;;;;;;;6.32;3.45;;;11.20;99.90;;;;;;5035062;28;20040;-71
2022/06/07 00:09:21;;;;;;;6.72;3.47;;;11.20;99.90;;;;;;5035442;28;20033;-71
2022/06/07 00:11:46;;;;;;;12.18;4.70;;;11.20;99.90;;;;;;5034864;28;20458;-71
2022/06/07 00:14:12;;;;;;;15.70;4.05;;;11.10;99.90;;;;;;5034731;28;20410;-71
2022/06/07 00:16:38;;;;;;;6.43;3.72;;;11.10;99.90;;;;;;5034829;28;20053;-71
2022/06/07 00:19:03;;;;;;;14.70;4.50;;;11.20;99.90;;;;;;5034737;28;20029;-71
2022/06/07 00:21:29;;;;;;;12.20;4.45;;;11.20;99.90;;;;;;5034813;28;20030;-72
2022/06/07 00:23:56;;;;;;;9.00;3.95;;;11.20;99.90;;;;;;5034646;28;20032;-71
2022/06/07 00:26:21;;;;;;;15.23;5.18;;;11.20;99.90;;;;;;5105416;23;20119;-72
2022/06/07 00:28:48;;;;;;;16.35;4.90;;;11.30;99.90;;;;;;5074270;28;20162;-72
2022/06/07 00:31:13;;;;;;;9.30;5.43;;;11.10;99.90;;;;;;5074633;28;20032;-72
2022/06/07 00:33:39;;;;;;;10.68;4.90;;;11.30;99.90;;;;;;5074551;28;20051;-72
2022/06/07 00:36:05;;;;;;;10.05;6.13;;;11.40;99.90;;;;;;5066449;28;20076;-72
2022/06/07 00:38:31;;;;;;;12.23;5.72;;;11.30;99.90;;;;;;5054288;28;20051;-72
2022/06/07 00:40:56;;;;;;;17.55;6.22;;;11.30;99.90;;;;;;5054124;28;20554;-72
2022/06/07 00:43:25;;;;;;;14.55;6.70;;;11.30;99.90;;;;;;5054029;28;20473;-73
2022/06/07 00:45:51;;;;;;;21.30;7.63;;;11.30;99.90;;;;;;5054014;28;20025;-73
2022/06/07 00:48:19;;;;;;;10.75;6.18;;;11.30;99.90;;;;;;5054626;28;20112;-72
2022/06/07 00:51:03;;;;;;;12.20;6.07;;;11.30;99.90;;;;;;5054916;28;20092;-72
2022/06/07 00:53:30;;;;;;;;;;;11.30;99.90;;;;;;5053996;28;20131;-71
2022/06/07 00:55:57;;;;;;;11.68;6.15;;;11.30;99.90;;;;;;5053832;28;19962;-72
2022/06/07 00:58:25;;;;;;;15.50;6.03;;;11.30;99.90;;;;;;5054340;28;20096;-72
2022/06/07 01:00:53;;;;;;;10.02;5.45;;;11.30;99.90;;;;;;5054158;28;20464;-72
2022/06/07 01:03:20;;;;;;;13.20;5.40;;;11.30;99.90;;;;;;5052652;28;20029;-72
2022/06/07 01:05:47;;;;;;;16.17;6.00;;;11.30;99.90;;;;;;5053831;28;20028;-72
2022/06/07 01:10:56;;;;;;;;;;;11.30;99.90;;;;;;5054118;28;20039;-72
2022/06/07 01:13:27;;;;;;;10.73;5.88;;;11.20;99.90;;;;;;5053749;28;19904;-72
2022/06/07 01:15:58;;;;;;;13.35;6.20;;;11.30;99.90;;;;;;5053555;28;20025;-72
2022/06/07 01:18:24;;;;;;;15.27;7.22;;;11.30;99.90;;;;;;5053749;28;20052;-72
2022/06/07 01:21:32;;;;;;;10.80;5.50;;;11.30;99.90;;;;;;5053737;28;20025;-72
2022/06/07 01:23:58;;;;;;;18.60;8.00;;;11.30;99.90;;;;;;5011753;28;20486;-72
2022/06/07 01:26:24;;;;;;;14.82;6.93;;;11.40;99.90;;;;;;5011693;28;20088;-72
2022/06/07 01:28:50;;;;;;;11.48;6.78;;;11.30;99.90;;;;;;5032293;28;20094;-72
2022/06/07 01:31:16;;;;;;;13.30;6.43;;;11.30;99.90;;;;;;5053486;28;20070;-72
2022/06/07 01:33:41;;;;;;;13.70;5.80;;;11.30;99.90;;;;;;5052248;28;20083;-72
2022/06/07 01:36:11;;;;;;;14.20;7.30;;;11.30;99.90;;;;;;5053594;28;20073;-72
2022/06/07 01:38:38;;;;;;;15.32;7.60;;;11.40;99.90;;;;;;5054000;28;20044;-71
2022/06/07 01:43:49;;;;;;;11.60;7.68;;;11.30;99.90;;;;;;5053800;28;20063;-71
2022/06/07 01:46:14;;;;;;;17.40;7.78;;;11.40;99.90;;;;;;5053296;28;20442;-71
2022/06/07 01:48:40;;;;;;;16.90;8.88;;;11.40;99.90;;;;;;5052773;28;20060;-72
2022/06/07 01:51:08;;;;;;;10.45;7.68;;;11.40;99.90;;;;;;5053176;28;20028;-72
2022/06/07 01:53:35;;;;;;;13.73;8.52;;;11.30;99.90;;;;;;5053155;28;20096;-72
2022/06/07 01:56:06;;;;;;;15.70;7.68;;;11.30;99.90;;;;;;5053256;28;20036;-72
2022/06/07 01:58:32;;;;;;;13.70;7.70;;;11.30;99.90;;;;;;5053389;28;20025;-72
2022/06/07 02:00:57;;;;;;;17.98;9.02;;;11.30;99.90;;;;;;5053669;28;20035;-72
2022/06/07 02:03:23;;;;;;;13.35;8.13;;;11.40;99.90;;;;;;5053080;28;20044;-72
2022/06/07 02:06:01;;;;;;;21.80;8.40;;;11.40;99.90;;;;;;5054186;28;20048;-72
2022/06/07 02:08:27;;;;;;;20.25;8.57;;;11.30;99.90;;;;;;5057283;28;20032;-72
2022/06/07 02:10:54;;;;;;;13.95;9.52;;;11.30;99.90;;;;;;5057217;28;20028;-74
2022/06/07 02:13:20;;;;;;;16.45;9.52;;;11.40;99.90;;;;;;5057654;28;20032;-74
2022/06/07 02:15:47;;;;;;;14.15;8.77;;;11.40;99.90;;;;;;5057575;28;20036;-74
2022/06/07 02:18:13;;;;;;;14.00;9.02;;;11.40;99.90;;;;;;5057858;28;20071;-73
2022/06/07 02:20:39;;;;;;;17.27;8.80;;;11.40;99.90;;;;;;5057277;28;20383;-73
2022/06/07 02:23:05;;;;;;;16.05;9.60;;;11.40;99.90;;;;;;5058253;28;20056;-73
2022/06/07 02:25:35;;;;;;;12.88;10.05;;;11.40;99.90;;;;;;5055879;28;20021;-74
2022/06/07 02:28:01;;;;;;;19.25;10.73;;;11.40;99.90;;;;;;5057987;28;20483;-74
2022/06/07 02:30:27;;;;;;;16.95;10.27;;;11.40;99.90;;;;;;5057306;28;20017;-74
2022/06/07 02:32:53;;;;;;;16.60;10.93;;;11.40;99.90;;;;;;5057299;28;20040;-74
2022/06/07 02:35:18;;;;;;;21.20;10.70;;;11.40;99.90;;;;;;5057341;28;20036;-74
2022/06/07 02:37:44;;;;;;;21.10;10.07;;;11.40;99.90;;;;;;5057005;28;20404;-74
2022/06/07 02:40:10;;;;;;;28.65;11.93;;;11.40;99.90;;;;;;5057174;28;20097;-74
2022/06/07 02:42:35;;;;;;;20.13;10.95;;;11.40;99.90;;;;;;5056763;28;20112;-73
2022/06/07 02:45:01;;;;;;;21.95;11.82;;;11.40;99.90;;;;;;5057261;28;20075;-74
2022/06/07 02:47:27;;;;;;;22.00;11.23;;;11.40;99.90;;;;;;5057705;28;20028;-74
2022/06/07 02:49:53;;;;;;;17.83;10.90;;;11.40;99.90;;;;;;5057016;28;20017;-74
2022/06/07 02:52:20;;;;;;;21.38;11.43;;;11.40;99.90;;;;;;5056545;28;20051;-73
2022/06/07 02:54:45;;;;;;;19.63;11.40;;;11.40;99.90;;;;;;5056780;28;20117;-73
2022/06/07 02:57:11;;;;;;;23.13;10.90;;;11.50;99.90;;;;;;5056333;28;20431;-73
2022/06/07 02:59:36;;;;;;;18.67;10.73;;;11.40;99.90;;;;;;5056685;28;20103;-73
2022/06/07 03:02:02;;;;;;;22.63;11.55;;;11.50;99.90;;;;;;5056241;28;20055;-73
2022/06/07 03:04:28;;;;;;;18.70;11.85;;;11.50;99.90;;;;;;5057098;28;20017;-73
2022/06/07 03:06:54;;;;;;;19.10;11.57;;;11.50;99.90;;;;;;5056247;28;20072;-73
2022/06/07 03:09:19;;;;;;;21.98;12.90;;;11.40;99.90;;;;;;5055355;28;20084;-72
2022/06/07 03:11:45;;;;;;;20.27;10.75;;;11.40;99.90;;;;;;5056432;28;20025;-73
2022/06/07 03:14:11;;;;;;;19.15;11.38;;;11.40;99.90;;;;;;5056356;28;20037;-73
2022/06/07 03:16:37;;;;;;;16.73;11.02;;;11.50;99.90;;;;;;5055509;28;20021;-73
2022/06/07 03:19:03;;;;;;;17.98;11.95;;;11.40;99.90;;;;;;5056477;28;20036;-73
2022/06/07 03:21:29;;;;;;;16.55;12.10;;;11.50;99.90;;;;;;5056212;28;20380;-73
2022/06/07 03:23:55;;;;;;;25.58;12.68;;;11.50;99.90;;;;;;5056165;28;20023;-73
2022/06/07 03:26:21;;;;;;;21.10;12.73;;;11.50;99.90;;;;;;5055815;28;20124;-73
2022/06/07 03:28:47;;;;;;;28.17;13.38;;;11.50;99.90;;;;;;5055626;28;20056;-71
2022/06/07 03:31:17;;;;;;;25.50;13.38;;;11.50;99.90;;;;;;5055453;28;20055;-71
2022/06/07 03:33:44;;;;;;;21.35;13.63;;;11.50;99.90;;;;;;5050552;28;20080;-71
2022/06/07 03:36:13;;;;;;;22.58;14.43;;;11.50;99.90;;;;;;5050994;28;20049;-71
2022/06/07 03:38:41;;;;;;;19.80;13.77;;;11.50;99.90;;;;;;5045059;28;20440;-71
2022/06/07 03:41:07;;;;;;;21.35;13.45;;;11.50;99.90;;;;;;5055193;28;20017;-71
2022/06/07 03:43:34;;;;;;;25.35;14.43;;;11.50;99.90;;;;;;5055375;28;20473;-71
2022/06/07 03:46:07;;;;;;;31.67;13.32;;;11.50;99.90;;;;;;5055417;28;20032;-71
2022/06/07 03:48:33;;;;;;;31.00;15.35;;;11.50;99.90;;;;;;5055147;28;20046;-71
2022/06/07 03:50:58;;;;;;;23.50;13.45;;;11.60;99.90;;;;;;5055087;28;20082;-72
2022/06/07 03:53:24;;;;;;;31.33;15.60;;;11.60;99.90;;;;;;5055723;28;20036;-72
2022/06/07 03:55:53;;;;;;;27.88;15.15;;;11.50;99.90;;;;;;5055100;28;20024;-72
2022/06/07 03:58:19;;;;;;;22.33;15.38;;;11.60;99.90;;;;;;5055407;28;20029;-71
2022/06/07 04:00:45;;;;;;;25.05;14.32;;;11.60;99.90;;;;;;5054851;28;20078;-73
2022/06/07 04:03:11;;;;;;;25.80;15.55;;;11.60;99.90;;;;;;5052223;28;20021;-72
2022/06/07 04:05:41;;;;;;;23.30;14.90;;;11.60;99.90;;;;;;5035361;28;20437;-73
2022/06/07 04:08:10;;;;;;;23.73;16.00;;;11.70;99.90;;;;;;5035536;28;20025;-73
2022/06/07 04:10:36;;;;;;;24.70;15.45;;;11.70;99.90;;;;;;5043416;28;20036;-72
2022/06/07 04:13:02;;;;;;;34.90;15.80;;;11.70;99.90;;;;;;5055808;28;20027;-73
2022/06/07 04:15:28;;;;;;;28.48;16.35;;;11.70;99.90;;;;;;5055451;28;20025;-72
2022/06/07 04:17:53;;;;;;;24.45;15.80;;;11.70;99.90;;;;;;5054859;28;20021;-72
2022/06/07 04:20:21;;;;;;;33.08;17.00;;;11.70;99.90;;;;;;5055205;28;20048;-72
2022/06/07 04:22:46;;;;;;;28.38;17.25;;;11.70;99.90;;;;;;5055375;28;20040;-72
2022/06/07 04:25:12;;;;;;;36.13;16.42;;;11.70;99.90;;;;;;5055051;28;20025;-71
2022/06/07 04:27:38;;;;;;;30.98;17.20;;;11.80;99.90;;;;;;5054012;28;20039;-71
2022/06/07 04:30:05;;;;;;;27.67;16.20;;;11.70;99.90;;;;;;5054334;28;20418;-71
2022/06/07 04:32:31;;;;;;;36.22;15.75;;;11.80;99.90;;;;;;5054235;28;20108;-71
2022/06/07 04:34:57;;;;;;;25.92;16.50;;;11.80;99.90;;;;;;5054170;28;20108;-71
2022/06/07 04:37:23;;;;;;;30.88;17.35;;;11.80;99.90;;;;;;5054380;28;20067;-73
2022/06/07 04:39:49;;;;;;;23.67;15.07;;;11.80;99.90;;;;;;5054722;28;20067;-73
2022/06/07 04:42:15;;;;;;;22.90;16.15;;;11.80;99.90;;;;;;5054378;28;20021;-73
2022/06/07 04:44:40;;;;;;;23.73;16.70;;;11.90;99.90;;;;;;5052908;28;20017;-71
2022/06/07 04:47:06;;;;;;;27.67;17.20;;;11.90;99.90;;;;;;5054295;28;20096;-73
2022/06/07 04:49:31;;;;;;;29.63;17.13;;;11.80;99.90;;;;;;5054541;28;20483;-72
2022/06/07 04:51:57;;;;;;;26.88;16.63;;;11.80;99.90;;;;;;5054156;28;20036;-71
2022/06/07 04:54:23;;;;;;;33.80;16.90;;;11.90;99.90;;;;;;5053936;28;20031;-71
2022/06/07 04:56:48;;;;;;;25.98;17.13;;;11.90;99.90;;;;;;5053865;28;20112;-71
2022/06/07 04:59:14;;;;;;;26.80;15.75;;;11.90;99.90;;;;;;5054665;28;20036;-73
2022/06/07 05:01:42;;;;;;;29.92;17.25;;;11.90;99.90;;;;;;5054227;28;20036;-73
2022/06/07 05:04:10;;;;;;;27.02;18.00;;;12.00;99.90;;;;;;5054079;28;20029;-72
2022/06/07 05:06:40;;;;;;;26.52;17.80;;;11.90;99.90;;;;;;5054020;28;20476;-72
2022/06/07 05:09:13;;;;;;;26.38;17.67;;;12.00;99.90;;;;;;5053986;28;20035;-72
2022/06/07 05:11:38;;;;;;;26.37;18.63;;;12.00;99.90;;;;;;5053777;28;20408;-72
2022/06/07 05:14:06;;;;;;;31.15;17.08;;;12.00;99.90;;;;;;5054045;28;20033;-72
2022/06/07 05:16:36;;;;;;;27.58;17.42;;;12.10;99.90;;;;;;5053736;28;20037;-72
2022/06/07 05:19:01;;;;;;;27.90;18.73;;;12.10;99.90;;;;;;5053694;28;20043;-72
2022/06/07 05:21:27;;;;;;;25.85;18.58;;;12.00;99.90;;;;;;5053708;28;20465;-72
2022/06/07 05:23:53;;;;;;;25.42;18.13;;;12.00;99.90;;;;;;5054014;28;20354;-71
2022/06/07 05:26:33;;;;;;;29.75;20.40;;;12.10;99.90;;;;;;5053357;28;20041;-72
2022/06/07 05:28:59;;;;;;;33.63;18.42;;;12.10;99.90;;;;;;5054338;28;20025;-72
2022/06/07 05:31:28;;;;;;;26.85;19.70;;;12.10;99.90;;;;;;5054287;28;20033;-72
2022/06/07 05:33:54;;;;;;;22.08;18.23;;;12.20;99.90;;;;;;5054479;28;20032;-71
2022/06/07 05:36:21;;;;;;;23.73;18.40;;;12.20;99.90;;;;;;5054181;28;20059;-72
2022/06/07 05:38:47;;;;;;;25.05;19.00;;;12.20;99.90;;;;;;5054068;28;20025;-72
2022/06/07 05:41:23;;;;;;;26.27;18.48;;;12.20;99.90;;;;;;5057869;28;20029;-71
2022/06/07 05:43:49;;;;;;;27.65;19.55;;;12.20;99.90;;;;;;5058234;28;20020;-71
2022/06/07 05:46:14;;;;;;;26.08;18.90;;;12.20;99.90;;;;;;5057203;28;20067;-71
2022/06/07 05:48:40;;;;;;;27.05;20.00;;;12.20;99.90;;;;;;5057530;28;20492;-71
2022/06/07 05:51:06;;;;;;;27.98;18.58;;;12.20;99.90;;;;;;5057156;28;20040;-71
2022/06/07 05:53:31;;;;;;;27.83;20.83;;;12.30;99.90;;;;;;5057150;28;20060;-70
2022/06/07 05:56:03;;;;;;;40.92;21.30;;;12.30;99.90;;;;;;5057047;28;20021;-70
2022/06/07 05:58:28;;;;;;;30.48;19.98;;;12.30;99.90;;;;;;5057336;28;20117;-70
2022/06/07 06:00:54;;;;;;;26.23;19.80;;;12.30;99.90;;;;;;5057245;28;20111;-70
2022/06/07 06:03:19;;;;;;;27.80;19.85;;;12.30;99.90;;;;;;5057238;28;20109;-71
2022/06/07 06:05:47;;;;;;;23.60;19.83;;;12.30;99.90;;;;;;5057412;28;20152;-71
2022/06/07 06:11:16;;;;;;;29.63;21.30;;;12.30;99.90;;;;;;5057495;28;20117;-72
2022/06/07 06:13:42;;;;;;;27.95;21.85;;;12.30;99.90;;;;;;5057330;28;20086;-72
2022/06/07 06:16:15;;;;;;;29.63;21.13;;;12.30;99.90;;;;;;5056869;28;20382;-72
2022/06/07 06:18:41;;;;;;;29.33;21.73;;;12.30;99.90;;;;;;5057177;28;20021;-72
2022/06/07 06:21:08;;;;;;;30.13;21.63;;;12.30;99.90;;;;;;5057321;28;20017;-72
2022/06/07 06:23:33;;;;;;;30.65;23.00;;;12.30;99.90;;;;;;5058181;28;20151;-72
2022/06/07 06:25:59;;;;;;;30.40;23.33;;;12.40;99.90;;;;;;5058210;28;20067;-72
2022/06/07 06:28:28;;;;;;;26.45;22.50;;;12.30;99.90;;;;;;5057272;28;20378;-72
2022/06/07 06:30:54;;;;;;;29.92;24.25;;;12.30;99.90;;;;;;5057126;28;20113;-72
2022/06/07 06:33:20;;;;;;;28.63;23.33;;;12.30;99.90;;;;;;5056711;28;20029;-73
2022/06/07 06:35:55;;;;;;;31.35;23.75;;;12.30;99.90;;;;;;5056739;28;20036;-72
2022/06/07 06:38:22;;;;;;;33.28;25.33;;;12.40;99.90;;;;;;5056656;28;20075;-73
2022/06/07 06:40:48;;;;;;;37.65;25.88;;;12.50;99.90;;;;;;5056560;28;20052;-73
2022/06/07 06:43:16;;;;;;;33.85;25.58;;;12.60;99.90;;;;;;5056622;28;20017;-72
2022/06/07 06:45:42;;;;;;;37.50;26.13;;;12.60;99.90;;;;;;5056798;28;20453;-72
2022/06/07 06:48:10;;;;;;;30.73;23.48;;;12.70;99.90;;;;;;5056527;28;20060;-72
2022/06/07 06:50:36;;;;;;;30.98;23.73;;;12.80;99.90;;;;;;5056217;28;20025;-71
2022/06/07 06:53:02;;;;;;;33.28;22.35;;;12.70;99.90;;;;;;5055213;28;20025;-71
2022/06/07 06:55:28;;;;;;;27.67;22.00;;;12.60;99.90;;;;;;5056304;28;20031;-70
2022/06/07 06:57:53;;;;;;;29.77;23.40;;;12.60;99.90;;;;;;5056013;28;20036;-70
2022/06/07 07:00:19;;;;;;;28.95;21.55;;;12.60;99.90;;;;;;5056191;28;20067;-70
2022/06/07 07:02:45;;;;;;;40.17;23.77;;;12.70;99.90;;;;;;5055944;28;20078;-71
2022/06/07 07:05:13;;;;;;;32.75;22.35;;;12.70;99.90;;;;;;5055738;28;20469;-71
2022/06/07 07:07:40;;;;;;;26.48;19.45;;;12.70;99.90;;;;;;5056114;28;20024;-71
2022/06/07 07:10:06;;;;;;;25.27;20.88;;;12.70;99.90;;;;;;5056418;28;20167;-70
2022/06/07 07:12:34;;;;;;;25.67;20.70;;;12.70;99.90;;;;;;5055809;28;20025;-70
2022/06/07 07:14:59;;;;;;;30.80;22.58;;;12.60;99.90;;;;;;5056116;28;20021;-70
2022/06/07 07:17:25;;;;;;;27.02;21.45;;;12.60;99.90;;;;;;5055940;28;20519;-72
2022/06/07 07:19:51;;;;;;;27.20;20.20;;;12.70;99.90;;;;;;5056231;28;20534;-72
2022/06/07 07:22:18;;;;;;;26.77;21.67;;;12.60;99.90;;;;;;5055608;28;20064;-72
2022/06/07 07:24:44;;;;;;;25.30;21.38;;;12.60;99.90;;;;;;5055689;28;20029;-72
2022/06/07 07:27:10;;;;;;;35.45;21.05;;;12.60;99.90;;;;;;5055674;28;20033;-73
2022/06/07 07:29:37;;;;;;;29.17;21.38;;;12.60;99.90;;;;;;5055710;28;20466;-73
2022/06/07 07:32:04;;;;;;;26.27;20.42;;;12.60;99.90;;;;;;5057111;28;20029;-72
2022/06/07 07:34:29;;;;;;;27.63;21.02;;;12.70;99.90;;;;;;5055783;28;20389;-72
2022/06/07 07:36:55;;;;;;;33.15;21.38;;;12.80;99.90;;;;;;5055577;28;20033;-72
2022/06/07 07:39:22;;;;;;;32.88;21.42;;;12.70;99.90;;;;;;5055935;28;20461;-72
2022/06/07 07:41:51;;;;;;;24.55;19.30;;;12.60;99.90;;;;;;5055577;28;20033;-72
2022/06/07 07:44:17;;;;;;;29.02;21.75;;;12.60;99.90;;;;;;5055773;28;20385;-72
2022/06/07 07:46:44;;;;;;;28.45;22.58;;;12.60;99.90;;;;;;5055653;28;20029;-72
2022/06/07 07:49:18;;;;;;;29.67;22.27;;;12.60;99.90;;;;;;5055599;28;20021;-70
2022/06/07 07:51:47;;;;;;;26.67;21.40;;;12.60;99.90;;;;;;5055739;28;20071;-71
2022/06/07 07:54:15;;;;;;;49.58;23.80;;;12.60;99.90;;;;;;5055520;28;20372;-70
2022/06/07 07:56:42;;;;;;;30.45;23.25;;;12.50;99.90;;;;;;5055219;28;20543;-70
2022/06/07 07:59:10;;;;;;;32.88;23.48;;;12.40;99.90;;;;;;5055849;28;20029;-70
2022/06/07 08:01:36;;;;;;;33.10;20.65;;;12.40;99.90;;;;;;5055062;28;20025;-69
2022/06/07 08:04:03;;;;;;;26.40;18.27;;;12.40;99.90;;;;;;5053717;28;20017;-69
2022/06/07 08:06:30;;;;;;;13.32;11.38;;;12.40;99.90;;;;;;5054754;28;20028;-76
2022/06/07 08:08:58;;;;;;;13.00;9.90;;;12.40;99.90;;;;;;5055656;28;20053;-76
2022/06/07 08:11:27;;;;;;;11.50;7.65;;;12.50;99.90;;;;;;5055263;28;20048;-74
2022/06/07 08:13:53;;;;;;;10.02;7.20;;;12.50;99.90;;;;;;5055098;28;20071;-77
2022/06/07 08:16:19;;;;;;;8.02;6.38;;;12.50;99.90;;;;;;5055419;28;20029;-77
2022/06/07 08:18:45;;;;;;;12.32;7.30;;;12.60;99.90;;;;;;5055068;28;20448;-75
2022/06/07 08:21:15;;;;;;;13.07;8.27;;;12.80;99.90;;;;;;5054794;28;20056;-74
2022/06/07 08:23:40;;;;;;;21.25;11.00;;;13.10;99.90;;;;;;5054720;28;20043;-74
2022/06/07 08:26:08;;;;;;;17.15;12.05;;;13.10;99.90;;;;;;5054555;28;20484;-75
2022/06/07 08:28:35;;;;;;;28.63;11.35;;;13.30;99.90;;;;;;5054820;28;20494;-73
2022/06/07 08:31:02;;;;;;;19.75;7.10;;;13.40;99.90;;;;;;5054687;28;20052;-75
2022/06/07 08:39:04;;;;;;;14.60;5.78;;;13.60;99.90;;;;;;5054780;28;20044;-74
2022/06/07 08:41:35;;;;;;;13.82;5.55;;;13.70;99.90;;;;;;5055031;28;20112;-74
2022/06/07 08:44:12;;;;;;;9.98;5.35;;;13.50;99.90;;;;;;5055095;28;20137;-73
2022/06/07 08:46:39;;;;;;;8.15;4.57;;;13.70;99.90;;;;;;5054324;28;20105;-73
2022/06/07 08:49:06;;;;;;;14.63;5.35;;;13.80;99.90;;;;;;5054504;28;20386;-73
2022/06/07 08:51:47;;;;;;;11.82;3.60;;;13.90;99.90;;;;;;5054391;28;20055;-73
2022/06/07 08:54:19;;;;;;;8.98;3.58;;;13.80;99.90;;;;;;5054289;28;20033;-74
2022/06/07 08:56:45;;;;;;;14.00;3.55;;;14.00;99.90;;;;;;5054159;28;20025;-73
2022/06/07 08:59:17;;;;;;;11.38;4.38;;;13.80;99.90;;;;;;5053996;28;20119;-73
2022/06/07 09:02:06;;;;;;;21.13;3.85;;;13.90;99.90;;;;;;5054909;28;20412;-73
2022/06/07 09:04:36;;;;;;;7.68;3.63;;;13.90;99.90;;;;;;5054035;28;20032;-73
2022/06/07 09:07:16;;;;;;;11.45;3.53;;;13.90;99.90;;;;;;5053966;28;20528;-72
2022/06/07 09:12:37;;;;;;;12.25;3.70;;;14.00;99.90;;;;;;5054194;28;20039;-73
2022/06/07 09:15:23;;;;;;;9.52;3.72;;;13.90;99.90;;;;;;5053709;28;20071;-73
2022/06/07 09:17:55;;;;;;;8.60;3.15;;;13.80;99.90;;;;;;5054130;28;20029;-74
2022/06/07 09:20:26;;;;;;;9.52;2.65;;;13.70;99.90;;;;;;5054168;28;20017;-74
2022/06/07 09:22:56;;;;;;;5.95;2.50;;;13.70;99.90;;;;;;5053704;28;20104;-73
2022/06/07 09:25:36;;;;;;;13.82;2.72;;;13.60;99.90;;;;;;5053704;28;20025;-73
2022/06/07 09:28:04;;;;;;;9.40;2.53;;;13.70;99.90;;;;;;5052685;28;20530;-73
2022/06/07 09:30:37;;;;;;;13.32;3.30;;;13.60;99.90;;;;;;5053562;28;20079;-73
2022/06/07 09:33:24;;;;;;;15.13;2.70;;;13.60;99.90;;;;;;5053946;28;20396;-73
2022/06/07 09:35:52;;;;;;;14.15;3.55;;;13.50;99.90;;;;;;5053750;28;20098;-73
2022/06/07 09:38:24;;;;;;;10.57;3.35;;;13.50;99.90;;;;;;5053586;28;20029;-73
2022/06/07 09:40:52;;;;;;;18.77;3.10;;;13.50;99.90;;;;;;5052567;28;20047;-73
2022/06/07 09:43:20;;;;;;;8.77;3.22;;;13.50;99.90;;;;;;5053720;28;20021;-72
2022/06/07 09:46:22;;;;;;;11.13;2.60;;;13.40;99.90;;;;;;5053373;28;20461;-71
2022/06/07 09:48:47;;;;;;;11.48;3.10;;;13.50;99.90;;;;;;5043439;28;20115;-71
2022/06/07 09:51:21;;;;;;;8.77;2.67;;;13.50;99.90;;;;;;5053550;28;20480;-71
2022/06/07 09:54:01;;;;;;;6.22;2.10;;;13.50;99.90;;;;;;5053523;28;20036;-72
2022/06/07 09:57:11;;;;;;;12.80;2.55;;;13.40;99.90;;;;;;5054010;28;20153;-73
2022/06/07 10:00:31;;;;;;;12.13;2.60;;;13.40;99.90;;;;;;5054063;28;20412;-73
2022/06/07 10:03:26;;;;;;;17.38;2.95;;;13.40;99.90;;;;;;4992062;28;20034;-71
2022/06/07 10:06:22;;;;;;;13.15;2.88;;;13.40;99.90;;;;;;4991879;28;20041;-71
2022/06/07 10:09:25;;;;;;;22.10;2.80;;;13.30;99.90;;;;;;5045320;28;20041;-71
2022/06/07 10:12:25;;;;;;;18.48;2.45;;;13.30;99.90;;;;;;5053188;28;20052;-71
2022/06/07 10:15:18;;;;;;;14.45;2.10;;;13.30;99.90;;;;;;5051272;28;20065;-71
2022/06/07 10:18:00;;;;;;;10.07;2.58;;;13.30;99.90;;;;;;5053473;28;20032;-71
2022/06/07 10:20:46;;;;;;;9.85;2.28;;;13.10;99.90;;;;;;5053752;28;20108;-73
2022/06/07 10:23:41;;;;;;;19.25;2.40;;;13.00;99.90;;;;;;5022633;28;20576;-72
2022/06/07 10:26:27;;;;;;;14.70;2.53;;;13.00;99.90;;;;;;5053814;28;20037;-73
2022/06/07 10:29:19;;;;;;;10.32;2.47;;;13.00;99.90;;;;;;5057114;28;20045;-73
2022/06/07 10:32:26;;;;;;;21.25;2.92;;;12.90;99.90;;;;;;5057111;28;20050;-71
2022/06/07 10:35:00;;;;;;;17.15;3.03;;;12.90;99.90;;;;;;5048431;28;20037;-71
2022/06/07 10:37:59;;;;;;;17.63;2.35;;;12.80;99.90;;;;;;5056715;28;20029;-72
2022/06/07 10:40:38;;;;;;;8.23;2.50;;;12.80;99.90;;;;;;5055752;28;20449;-73
2022/06/07 10:43:23;;;;;;;15.07;2.50;;;12.80;99.90;;;;;;5056784;28;20071;-72
2022/06/07 10:45:53;;;;;;;20.20;3.70;;;12.80;99.90;;;;;;5055503;28;20021;-71
2022/06/07 10:48:29;;;;;;;12.05;2.92;;;12.70;99.90;;;;;;5056870;28;20013;-71
2022/06/07 10:52:20;;;;;;;19.58;3.28;;;12.70;99.90;;;;;;5056808;28;20473;-72
2022/06/07 10:54:01;;;;;;;21.25;2.78;;;12.60;99.90;;;;;;5056933;28;20048;-73
2022/06/07 10:56:33;;;;;;;19.48;3.13;;;12.70;99.90;;;;;;5056452;28;20025;-75
2022/06/07 10:59:03;;;;;;;18.30;2.80;;;12.80;99.90;;;;;;5056496;28;20048;-75
2022/06/07 11:01:41;;;;;;;18.35;2.85;;;12.80;99.90;;;;;;5056379;28;20029;-73
2022/06/07 11:10:10;;;;;;;15.65;3.33;;;12.60;99.90;;;;;;5056552;28;20031;-73
2022/06/07 11:13:10;;;;;;;21.27;3.78;;;12.60;99.90;;;;;;5056898;28;20025;-74
2022/06/07 11:15:54;;;;;;;17.50;3.47;;;12.40;99.90;;;;;;5056165;28;20029;-74
2022/06/07 11:18:24;;;;;;;15.93;2.45;;;12.70;99.90;;;;;;5056187;28;20059;-72
2022/06/07 11:21:02;;;;;;;14.65;3.38;;;12.60;99.90;;;;;;5054568;28;20119;-73
2022/06/07 11:23:33;;;;;;;15.27;3.05;;;12.60;99.90;;;;;;5055760;28;20150;-74
2022/06/07 11:26:14;;;;;;;20.38;3.45;;;12.60;99.90;;;;;;5054452;28;20032;-73
2022/06/07 11:28:39;;;;;;;16.45;3.08;;;12.70;99.90;;;;;;5056344;28;20040;-73
2022/06/07 11:31:23;;;;;;;11.52;3.33;;;12.70;99.90;;;;;;5055619;28;20040;-71
2022/06/07 11:33:52;;;;;;;20.10;3.67;;;12.80;99.90;;;;;;5056681;28;20021;-74
2022/06/07 11:36:20;;;;;;;17.70;3.60;;;12.90;99.90;;;;;;5055550;28;20100;-73
2022/06/07 11:39:03;;;;;;;13.10;4.38;;;12.90;99.90;;;;;;5055836;28;20080;-73
2022/06/07 11:41:38;;;;;;;18.23;4.13;;;13.10;99.90;;;;;;5055608;28;20060;-73
2022/06/07 11:44:12;;;;;;;18.98;4.75;;;13.00;99.90;;;;;;5056232;28;20400;-70
2022/06/07 11:46:45;;;;;;;21.45;5.78;;;12.90;99.90;;;;;;5055455;28;20041;-69
2022/06/07 11:49:25;;;;;;;17.10;4.83;;;12.80;99.90;;;;;;5055482;28;20111;-70
2022/06/07 11:52:14;;;;;;;21.45;5.15;;;12.70;99.90;;;;;;5055525;28;20267;-72
2022/06/07 11:54:46;;;;;;;23.85;4.43;;;12.90;99.90;;;;;;5047978;28;20052;-72
2022/06/07 11:57:29;;;;;;;15.02;3.55;;;13.00;99.90;;;;;;5055633;28;20370;-71
2022/06/07 12:00:23;;;;;;;23.70;4.70;;;12.80;99.90;;;;;;5055507;28;20059;-71
2022/06/07 12:03:01;;;;;;;18.80;4.38;;;13.00;99.90;;;;;;5055154;28;20029;-71
2022/06/07 12:05:29;;;;;;;17.83;4.47;;;13.40;99.90;;;;;;5055365;28;20455;-71
2022/06/07 12:08:09;;;;;;;19.17;4.32;;;13.60;99.90;;;;;;5054767;28;20025;-70
2022/06/07 12:10:40;;;;;;;20.48;4.40;;;13.50;99.90;;;;;;5055066;28;20045;-70
2022/06/07 12:13:13;;;;;;;23.08;4.25;;;13.40;99.90;;;;;;5053471;28;20044;-70
2022/06/07 12:15:50;;;;;;;22.55;5.05;;;13.40;99.90;;;;;;5054704;28;20083;-77
2022/06/07 12:18:27;;;;;;;28.55;5.38;;;13.50;99.90;;;;;;5054088;28;20024;-77
2022/06/07 12:21:06;;;;;;;19.25;4.80;;;13.60;99.90;;;;;;5050508;28;20083;-74
2022/06/07 12:23:42;;;;;;;28.02;5.22;;;13.60;99.90;;;;;;5035671;28;20385;-73
2022/06/07 12:26:24;;;;;;;26.10;4.65;;;13.50;99.90;;;;;;5049356;28;20408;-75
2022/06/07 12:28:56;;;;;;;15.27;4.13;;;13.40;99.90;;;;;;5054989;28;20029;-75
2022/06/07 12:31:31;;;;;;;24.40;4.53;;;13.30;99.90;;;;;;5055059;28;20074;-75
2022/06/07 12:34:03;;;;;;;22.85;4.22;;;13.10;99.90;;;;;;5055274;28;20041;-75
2022/06/07 12:36:30;;;;;;;17.00;3.78;;;13.00;99.90;;;;;;5054163;28;20051;-74
2022/06/07 12:39:00;;;;;;;10.73;3.97;;;12.80;99.90;;;;;;5054629;28;20037;-75
2022/06/07 12:41:27;;;;;;;17.17;3.80;;;12.60;99.90;;;;;;5054429;28;20097;-74
2022/06/07 12:43:56;;;;;;;19.58;5.90;;;12.70;99.90;;;;;;5054312;28;20025;-75
2022/06/07 12:46:31;;;;;;;25.45;5.03;;;12.80;99.90;;;;;;5054676;28;20025;-77
2022/06/07 12:48:59;;;;;;;22.63;4.65;;;12.80;99.90;;;;;;5054152;28;20028;-76
2022/06/07 12:51:24;;;;;;;20.88;4.43;;;12.70;99.90;;;;;;5054499;28;20044;-76
2022/06/07 12:53:58;;;;;;;15.23;3.78;;;12.50;99.90;;;;;;5054597;28;20033;-75
2022/06/07 12:56:25;;;;;;;;;;;12.60;99.90;;;;;;5057653;28;20053;-78
2022/06/07 12:58:52;;;;;;;17.15;5.00;;;12.50;99.90;;;;;;5057769;28;20368;-78
2022/06/07 13:01:24;;;;;;;13.52;4.30;;;12.60;99.90;;;;;;5055891;28;20061;-78
2022/06/07 13:03:53;;;;;;;8.93;3.08;;;13.00;99.90;;;;;;5054583;28;20016;-75
2022/06/07 13:06:20;;;;;;;12.68;2.97;;;13.30;99.90;;;;;;5054508;28;20021;-76
2022/06/07 13:09:00;;;;;;;19.45;3.05;;;13.80;99.90;;;;;;5054036;28;20016;-75
2022/06/07 13:11:26;;;;;;;10.10;3.38;;;13.60;99.90;;;;;;5054524;28;20116;-75
2022/06/07 13:13:52;;;;;;;17.20;3.95;;;13.60;99.90;;;;;;5054428;28;20040;-74